createdAt,value
2023-04-01T04:48:44.344Z,3.95
2023-04-01T04:49:56.548Z,3.79
2023-04-01T04:51:02.966Z,3.83
2023-04-01T04:54:06.399Z,4.06
2023-04-01T04:55:29.440Z,4.13
2023-04-01T04:57:10.418Z,4.15
2023-04-01T04:58:32.478Z,4.21
2023-04-01T05:01:43.004Z,4.17
2023-04-01T05:02:50.332Z,4.28
2023-04-01T05:04:01.557Z,4.44
2023-04-01T05:05:19.631Z,4.36
2023-04-01T05:06:39.296Z,4.40
2023-04-01T05:07:46.875Z,4.38
2023-04-01T05:08:50.443Z,4.41
2023-04-01T05:31:52.391Z,5.02
2023-04-01T05:33:19.320Z,5.07
2023-04-01T05:34:32.695Z,5.06
2023-04-01T05:35:42.679Z,4.98
2023-04-01T05:37:43.984Z,5.09
2023-04-01T05:38:59.238Z,5.19
2023-04-01T05:40:15.660Z,5.24
2023-04-01T05:41:53.561Z,5.21
2023-04-01T06:12:26.134Z,5.88
2023-04-01T06:13:56.804Z,5.86
2023-04-01T06:20:09.090Z,5.72
2023-04-01T06:21:28.169Z,5.93
2023-04-01T06:23:16.484Z,6.10
2023-04-01T06:24:23.914Z,6.22
2023-04-01T06:26:15.535Z,6.55
2023-04-01T06:27:27.270Z,6.58
2023-04-01T06:29:04.941Z,6.35
2023-04-01T06:30:42.509Z,6.63
2023-04-01T06:32:08.638Z,6.96
2023-04-01T06:33:39.778Z,7.04
2023-04-01T06:34:56.823Z,7.16
2023-04-01T06:36:13.126Z,7.17
2023-04-01T06:37:34.583Z,7.16
2023-04-01T06:38:48.443Z,7.28
2023-04-01T06:40:27.694Z,7.07
2023-04-01T06:41:45.485Z,7.15
2023-04-01T06:43:24.507Z,6.98
2023-04-01T06:44:52.206Z,7.03
2023-04-01T06:46:32.383Z,6.89
2023-04-01T06:48:05.059Z,6.97
2023-04-01T06:50:06.811Z,6.86
2023-04-01T06:52:03.922Z,6.77
2023-04-01T06:53:46.699Z,6.91
2023-04-01T06:55:22.962Z,6.93
2023-04-01T06:56:57.712Z,6.86
2023-04-01T06:58:09.711Z,6.82
2023-04-01T06:59:47.927Z,6.78
2023-04-01T07:01:02.483Z,6.71
2023-04-01T07:02:18.629Z,7.06
2023-04-01T07:03:35.137Z,6.95
2023-04-01T07:06:23.145Z,6.90
2023-04-01T07:07:45.439Z,7.11
2023-04-01T07:09:04.187Z,7.14
2023-04-01T07:11:08.676Z,6.55
2023-04-01T07:12:35.243Z,6.71
2023-04-01T07:14:16.196Z,6.75
2023-04-01T07:15:35.386Z,6.90
2023-04-01T07:17:17.033Z,6.90
2023-04-01T07:18:39.488Z,7.06
2023-04-01T07:20:04.482Z,7.00
2023-04-01T07:21:16.927Z,6.99
2023-04-01T07:22:54.012Z,6.82
2023-04-01T07:24:44.428Z,6.96
2023-04-01T07:25:55.618Z,6.95
2023-04-01T07:27:22.448Z,6.93
2023-04-01T07:28:37.811Z,7.04
2023-04-01T07:30:14.220Z,7.12
2023-04-01T07:31:40.073Z,7.02
2023-04-01T07:33:09.749Z,7.03
2023-04-01T07:34:28.427Z,7.20
2023-04-01T07:36:04.638Z,7.42
2023-04-01T07:37:14.036Z,7.51
2023-04-01T07:38:45.336Z,7.57
2023-04-01T07:40:15.358Z,7.77
2023-04-01T07:41:26.911Z,7.97
2023-04-01T07:43:05.241Z,8.18
2023-04-01T07:44:21.629Z,8.20
2023-04-01T07:45:39.762Z,8.44
2023-04-01T07:47:02.256Z,8.45
2023-04-01T07:48:42.270Z,8.52
2023-04-01T07:50:47.835Z,8.98
2023-04-01T07:52:43.238Z,9.23
2023-04-01T07:54:27.612Z,9.26
2023-04-01T07:56:45.254Z,10.28
2023-04-01T08:00:12.644Z,10.85
2023-04-01T08:01:55.152Z,11.32
2023-04-01T08:03:14.615Z,11.71
2023-04-01T08:04:46.649Z,10.89
2023-04-01T08:06:27.438Z,10.92
2023-04-01T08:07:35.817Z,11.06
2023-04-01T08:09:23.224Z,11.49
2023-04-01T08:11:09.718Z,11.15
2023-04-01T08:13:15.653Z,11.96
2023-04-01T08:15:17.395Z,11.62
2023-04-01T08:17:09.786Z,11.29
2023-04-01T08:18:48.408Z,11.15
2023-04-01T08:20:13.793Z,11.45
2023-04-01T08:21:36.346Z,11.36
2023-04-01T08:22:48.625Z,11.39
2023-04-01T08:24:15.395Z,11.48
2023-04-01T08:25:28.599Z,11.51
2023-04-01T08:26:47.302Z,12.08
2023-04-01T08:28:30.190Z,11.97
2023-04-01T08:29:47.858Z,12.34
2023-04-01T08:31:18.043Z,12.44
2023-04-01T08:32:45.746Z,12.56
2023-04-01T08:34:06.610Z,12.15
2023-04-01T08:35:16.998Z,12.00
2023-04-01T08:36:33.205Z,12.35
2023-04-01T08:37:53.508Z,12.40
2023-04-01T08:39:13.980Z,12.76
2023-04-01T08:40:54.440Z,11.86
2023-04-01T08:42:27.871Z,12.61
2023-04-01T08:44:20.109Z,13.18
2023-04-01T08:46:25.010Z,12.81
2023-04-01T08:47:50.338Z,12.88
2023-04-01T08:49:54.869Z,13.78
2023-04-01T08:53:58.784Z,13.31
2023-04-01T08:55:54.245Z,13.73
2023-04-01T08:57:12.861Z,13.82
2023-04-01T09:02:25.870Z,13.82
2023-04-01T09:03:50.293Z,12.98
2023-04-01T09:05:36.012Z,13.39
2023-04-01T09:07:12.883Z,12.54
2023-04-01T09:08:51.131Z,12.91
2023-04-01T09:10:06.518Z,13.31
2023-04-01T09:11:17.063Z,13.37
2023-04-01T09:13:31.389Z,13.09
2023-04-01T09:18:32.070Z,13.24
2023-04-01T09:20:19.582Z,13.23
2023-04-01T09:21:49.704Z,13.12
2023-04-01T09:23:07.826Z,12.72
2023-04-01T09:24:45.688Z,12.89
2023-04-01T09:26:21.943Z,12.19
2023-04-01T09:27:48.968Z,12.09
2023-04-01T09:29:34.424Z,11.75
2023-04-01T09:31:05.759Z,11.90
2023-04-01T09:32:42.253Z,11.89
2023-04-01T09:34:18.952Z,11.46
2023-04-01T09:35:49.349Z,11.95
2023-04-01T09:37:23.037Z,12.27
2023-04-01T09:38:57.626Z,12.17
2023-04-01T09:40:26.015Z,11.84
2023-04-01T09:41:55.004Z,11.44
2023-04-01T09:43:19.705Z,11.41
2023-04-01T09:44:33.270Z,11.29
2023-04-01T09:46:06.227Z,11.74
2023-04-01T09:48:10.433Z,11.28
2023-04-01T09:49:52.827Z,11.61
2023-04-01T09:51:25.210Z,11.13
2023-04-01T09:52:59.421Z,11.09
2023-04-01T09:54:22.647Z,11.16
2023-04-01T09:55:52.931Z,11.00
2023-04-01T09:57:49.801Z,11.13
2023-04-01T09:59:53.657Z,10.76
2023-04-01T10:01:57.441Z,10.90
2023-04-01T10:03:43.690Z,11.12
2023-04-01T10:05:18.446Z,11.00
2023-04-01T10:07:20.363Z,10.78
2023-04-01T10:09:09.699Z,10.83
2023-04-01T10:10:34.641Z,11.03
2023-04-01T10:12:26.892Z,11.05
2023-04-01T10:14:22.984Z,10.81
2023-04-01T10:15:42.892Z,10.93
2023-04-01T10:17:15.289Z,11.15
2023-04-01T10:18:27.778Z,11.08
2023-04-01T10:20:02.946Z,10.87
2023-04-01T10:21:22.725Z,10.52
2023-04-01T10:22:50.517Z,10.58
2023-04-01T10:24:39.217Z,10.86
2023-04-01T10:26:36.217Z,10.83
2023-04-01T10:28:11.050Z,10.83
2023-04-01T10:30:08.051Z,10.84
2023-04-01T10:32:20.843Z,10.38
2023-04-01T10:33:48.131Z,10.60
2023-04-01T10:35:11.352Z,10.60
2023-04-01T10:36:18.546Z,10.57
2023-04-01T10:37:49.621Z,10.35
2023-04-01T10:39:31.712Z,10.59
2023-04-01T10:41:23.592Z,10.68
2023-04-01T10:43:22.216Z,10.68
2023-04-01T10:45:14.321Z,10.77
2023-04-01T10:46:57.502Z,10.66
2023-04-01T10:48:21.477Z,10.64
2023-04-01T10:50:03.288Z,10.35
2023-04-01T10:51:28.340Z,10.27
2023-04-01T10:52:47.767Z,10.31
2023-04-01T10:54:17.108Z,9.97
2023-04-01T10:56:35.056Z,10.03
2023-04-01T10:58:38.067Z,10.06
2023-04-01T11:00:29.595Z,10.00
2023-04-01T11:02:21.851Z,9.96
2023-04-01T11:04:29.169Z,9.95
2023-04-01T11:06:17.070Z,9.97
2023-04-01T11:08:05.283Z,9.99
2023-04-01T11:09:26.633Z,10.12
2023-04-01T11:11:20.071Z,10.01
2023-04-01T11:12:48.064Z,10.02
2023-04-01T11:14:19.168Z,10.05
2023-04-01T11:16:00.559Z,10.04
2023-04-01T11:17:38.674Z,9.90
2023-04-01T11:19:12.111Z,10.05
2023-04-01T11:20:54.576Z,10.07
2023-04-01T11:22:11.737Z,10.12
2023-04-01T11:23:28.670Z,10.31
2023-04-01T11:24:54.489Z,10.23
2023-04-01T11:26:54.521Z,10.32
2023-04-01T11:28:10.177Z,10.41
2023-04-01T11:29:49.770Z,10.37
2023-04-01T11:31:27.752Z,10.22
2023-04-01T11:32:51.647Z,10.19
2023-04-01T11:34:18.555Z,10.17
2023-04-01T11:35:26.509Z,10.15
2023-04-01T11:36:55.833Z,10.11
2023-04-01T11:38:24.195Z,9.93
2023-04-01T11:40:10.263Z,10.16
2023-04-01T11:42:10.334Z,9.96
2023-04-01T11:44:00.771Z,10.12
2023-04-01T11:45:29.245Z,10.06
2023-04-01T11:46:57.227Z,10.14
2023-04-01T11:48:26.685Z,10.20
2023-04-01T11:50:13.764Z,10.11
2023-04-01T11:51:38.843Z,10.03
2023-04-01T11:53:00.188Z,10.28
2023-04-01T11:54:18.502Z,10.30
2023-04-01T11:55:27.674Z,10.53
2023-04-01T11:56:52.568Z,10.59
2023-04-01T11:58:00.946Z,10.68
2023-04-01T11:59:07.557Z,10.62
2023-04-01T12:00:34.761Z,10.77
2023-04-01T12:02:11.173Z,10.99
2023-04-01T12:03:49.871Z,11.01
2023-04-01T12:05:01.879Z,11.14
2023-04-01T12:06:27.242Z,11.28
2023-04-01T12:08:00.289Z,11.30
2023-04-01T12:09:19.914Z,11.40
2023-04-01T12:10:35.435Z,11.53
2023-04-01T12:11:51.208Z,11.59
2023-04-01T12:13:08.241Z,11.47
2023-04-01T12:14:27.512Z,11.41
2023-04-01T12:15:51.179Z,11.30
2023-04-01T12:17:20.684Z,11.49
2023-04-01T12:18:33.720Z,11.26
2023-04-01T12:19:51.079Z,11.42
2023-04-01T12:21:30.081Z,11.55
2023-04-01T12:22:53.855Z,11.58
2023-04-01T12:24:33.920Z,11.13
2023-04-01T12:25:36.861Z,11.32
2023-04-01T12:27:01.613Z,11.50
2023-04-01T12:28:20.759Z,11.27
2023-04-01T12:29:38.474Z,11.44
2023-04-01T12:30:50.187Z,11.43
2023-04-01T12:32:30.797Z,11.58
2023-04-01T12:33:40.000Z,11.59
2023-04-01T12:34:44.972Z,11.56
2023-04-01T12:36:05.729Z,11.41
2023-04-01T12:37:20.410Z,11.14
2023-04-01T12:38:36.460Z,11.29
2023-04-01T12:40:11.085Z,11.43
2023-04-01T12:41:28.889Z,11.33
2023-04-01T12:42:35.016Z,11.41
2023-04-01T12:44:30.608Z,11.44
2023-04-01T12:45:49.465Z,11.38
2023-04-01T12:50:03.426Z,10.93
2023-04-01T12:56:30.062Z,10.84
2023-04-01T12:57:34.184Z,10.86
2023-04-01T12:59:23.000Z,10.96
2023-04-01T13:00:48.458Z,11.10
2023-04-01T13:02:33.094Z,11.00
2023-04-01T13:04:20.768Z,10.70
2023-04-01T13:05:51.176Z,10.50
2023-04-01T13:07:03.641Z,10.50
2023-04-01T13:08:32.056Z,10.67
2023-04-01T13:10:05.134Z,10.51
2023-04-01T13:11:21.961Z,10.49
2023-04-01T13:12:55.751Z,10.54
2023-04-01T13:14:31.351Z,10.71
2023-04-01T13:15:54.755Z,10.64
2023-04-01T13:17:15.386Z,10.65
2023-04-01T13:18:27.129Z,10.68
2023-04-01T13:20:06.411Z,10.68
2023-04-01T13:21:47.829Z,10.68
2023-04-01T13:23:25.942Z,10.60
2023-04-01T13:24:42.006Z,10.50
2023-04-01T13:26:15.132Z,10.54
2023-04-01T13:27:33.534Z,10.58
2023-04-01T13:28:46.848Z,10.58
2023-04-01T13:30:10.824Z,10.48
2023-04-01T13:31:55.165Z,10.53
2023-04-01T13:33:14.825Z,10.42
2023-04-01T13:34:38.832Z,10.45
2023-04-01T13:36:17.689Z,10.36
2023-04-01T13:37:36.080Z,10.29
2023-04-01T13:39:09.328Z,9.92
2023-04-01T13:40:30.226Z,10.09
2023-04-01T13:41:57.186Z,10.10
2023-04-01T13:43:15.218Z,10.06
2023-04-01T13:44:33.388Z,10.02
2023-04-01T13:46:03.475Z,10.14
2023-04-01T13:47:43.133Z,10.08
2023-04-01T13:49:26.042Z,9.98
2023-04-01T13:51:08.778Z,10.03
2023-04-01T13:52:32.973Z,9.90
2023-04-01T13:53:57.424Z,9.83
2023-04-01T13:55:25.735Z,9.75
2023-04-01T13:56:47.953Z,9.84
2023-04-01T13:58:28.351Z,9.70
2023-04-01T13:59:53.834Z,9.75
2023-04-01T17:02:33.932Z,8.29
2023-04-01T17:09:58.295Z,8.22
2023-04-01T17:11:40.358Z,8.24
2023-04-01T17:18:45.737Z,8.23
2023-04-01T20:38:30.963Z,8.40
2023-04-01T20:39:53.764Z,8.24
2023-04-01T20:41:28.999Z,8.28
2023-04-01T20:42:48.602Z,8.30
2023-04-01T20:44:12.865Z,8.28
2023-04-01T20:45:44.140Z,8.21
2023-04-01T20:47:14.584Z,8.32
2023-04-01T20:48:59.497Z,8.26
2023-04-01T20:50:35.248Z,8.13
2023-04-01T20:51:52.550Z,8.20
2023-04-01T20:53:09.244Z,8.31
2023-04-01T20:54:46.409Z,8.27
2023-04-01T20:56:12.397Z,8.27
2023-04-01T20:57:33.602Z,8.26
2023-04-01T20:58:44.065Z,8.20
2023-04-01T21:00:53.044Z,8.19
2023-04-01T21:02:21.542Z,8.30
2023-04-01T21:03:56.606Z,8.22
2023-04-01T21:05:46.957Z,8.21
